Time;durP1;ratioP1;P1;durP2;ratioP2;P2;SDS_P1;SDS_P2;PMS_P1;PMS_P2;Temp;Humidity;BMP_temperature;BMP_pressure;BME280_temperature;BME280_humidity;BME280_pressure;Samples;Min_cycle;Max_cycle;Signal;HPM_P1;HPM_P2
2021/12/31 00:02:20;;;;;;;;;;;22.50;54.80;;;;;;5045347;28;19962;-64
2021/12/31 00:04:45;;;;;;;;;;;22.50;54.80;;;;;;5041460;28;20364;-65
2021/12/31 00:07:11;;;;;;;;;;;22.50;54.80;;;;;;5040766;28;19952;-63
2021/12/31 00:09:37;;;;;;;;;;;22.50;54.80;;;;;;5045993;28;19909;-63
2021/12/31 00:12:04;;;;;;;;;;;22.50;54.80;;;;;;5047398;28;19908;-63
2021/12/31 00:14:30;;;;;;;;;;;22.50;54.80;;;;;;5043034;28;19916;-68
2021/12/31 00:16:55;;;;;;;;;;;22.40;54.80;;;;;;5043158;28;20404;-64
2021/12/31 00:19:22;;;;;;;;;;;22.40;54.80;;;;;;5046106;28;19928;-64
2021/12/31 00:21:49;;;;;;;;;;;22.40;54.80;;;;;;5039916;28;20574;-63
2021/12/31 00:24:14;;;;;;;;;;;22.40;54.80;;;;;;5042834;28;19920;-68
2021/12/31 00:26:40;;;;;;;;;;;22.40;54.90;;;;;;5042789;28;19912;-65
2021/12/31 00:29:05;;;;;;;;;;;22.40;54.90;;;;;;5043922;28;19909;-65
2021/12/31 00:31:31;;;;;;;;;;;22.40;54.90;;;;;;5042685;28;19955;-64
2021/12/31 00:33:56;;;;;;;;;;;22.40;54.90;;;;;;5040055;28;20268;-64
2021/12/31 00:36:22;;;;;;;;;;;22.40;54.90;;;;;;5036580;28;19913;-68
2021/12/31 00:38:47;;;;;;;;;;;22.40;55.00;;;;;;5043528;28;19913;-69
2021/12/31 00:41:13;;;;;;;;;;;22.40;55.00;;;;;;5045176;28;20317;-65
2021/12/31 00:43:38;;;;;;;;;;;22.40;55.00;;;;;;5041916;28;19915;-64
2021/12/31 00:46:04;;;;;;;;;;;22.30;55.00;;;;;;5044469;28;19920;-63
2021/12/31 00:48:30;;;;;;;;;;;22.30;55.00;;;;;;5045948;28;20265;-65
2021/12/31 00:50:56;;;;;;;;;;;22.30;55.00;;;;;;5046481;28;20477;-65
2021/12/31 00:53:22;;;;;;;;;;;22.30;55.00;;;;;;5045467;28;19905;-65
2021/12/31 00:55:48;;;;;;;;;;;22.20;55.00;;;;;;5042047;28;19925;-68
2021/12/31 00:58:13;;;;;;;;;;;22.20;55.00;;;;;;5043094;28;19924;-68
2021/12/31 01:00:39;;;;;;;;;;;22.30;55.10;;;;;;5045156;28;19944;-65
2021/12/31 01:03:05;;;;;;;;;;;22.20;55.10;;;;;;5044430;28;20495;-68
2021/12/31 01:05:30;;;;;;;;;;;22.20;55.10;;;;;;5045928;28;19912;-68
2021/12/31 01:07:56;;;;;;;;;;;22.20;55.10;;;;;;5044498;28;19931;-63
2021/12/31 01:10:23;;;;;;;;;;;22.20;55.10;;;;;;5045496;28;20019;-64
2021/12/31 01:12:50;;;;;;;;;;;22.20;55.10;;;;;;5043633;28;19954;-67
2021/12/31 01:15:39;;;;;;;;;;;22.20;55.10;;;;;;5045546;28;19919;-68
2021/12/31 01:20:36;;;;;;;;;;;22.10;55.10;;;;;;5046152;28;20613;-67
2021/12/31 01:23:02;;;;;;;;;;;22.10;55.10;;;;;;5042411;28;19966;-65
2021/12/31 01:25:28;;;;;;;;;;;22.10;55.10;;;;;;5045512;28;19913;-65
2021/12/31 01:27:53;;;;;;;;;;;22.10;55.10;;;;;;5046356;28;19928;-64
2021/12/31 01:30:19;;;;;;;;;;;22.10;55.10;;;;;;5046526;28;19913;-64
2021/12/31 01:32:45;;;;;;;;;;;22.10;55.10;;;;;;5046863;28;19995;-64
2021/12/31 01:35:12;;;;;;;;;;;22.10;55.20;;;;;;5046710;28;19917;-65
2021/12/31 01:37:37;;;;;;;;;;;22.10;55.20;;;;;;5042922;28;19927;-64
2021/12/31 01:40:03;;;;;;;;;;;22.10;55.20;;;;;;5044305;28;20659;-64
2021/12/31 01:42:32;;;;;;;;;;;22.10;55.20;;;;;;5039207;28;19954;-68
2021/12/31 01:45:04;;;;;;;;;;;22.10;55.20;;;;;;5046899;28;19912;-64
2021/12/31 01:50:30;;;;;;;;;;;22.10;55.20;;;;;;4999177;28;20389;-65
2021/12/31 01:52:56;;;;;;;;;;;22.00;55.20;;;;;;5034293;28;19912;-63
2021/12/31 01:55:24;;;;;;;;;;;22.10;55.30;;;;;;5046216;28;20009;-64
2021/12/31 01:57:50;;;;;;;;;;;22.00;55.20;;;;;;5042578;28;19916;-67
2021/12/31 02:00:16;;;;;;;;;;;22.00;55.20;;;;;;5045956;28;19936;-65
2021/12/31 02:02:44;;;;;;;;;;;22.00;55.80;;;;;;5040049;28;19921;-66
2021/12/31 02:05:09;;;;;;;;;;;22.00;55.30;;;;;;5045459;28;20379;-64
2021/12/31 02:07:36;;;;;;;;;;;22.00;55.30;;;;;;5042372;28;19912;-68
2021/12/31 02:10:01;;;;;;;;;;;22.00;55.30;;;;;;5044907;28;19940;-64
2021/12/31 02:12:27;;;;;;;;;;;22.00;55.30;;;;;;5038693;28;20321;-64
2021/12/31 02:14:52;;;;;;;;;;;22.00;55.30;;;;;;5044995;28;20329;-64
2021/12/31 02:17:18;;;;;;;;;;;22.00;55.30;;;;;;5043119;28;19920;-64
2021/12/31 02:19:56;;;;;;;;;;;21.90;55.30;;;;;;5043874;28;19909;-64
2021/12/31 02:22:27;;;;;;;;;;;21.90;55.30;;;;;;5039714;28;20514;-63
2021/12/31 02:24:52;;;;;;;;;;;22.00;55.30;;;;;;5043739;28;20006;-68
2021/12/31 02:27:18;;;;;;;;;;;21.90;55.30;;;;;;5042358;28;20396;-65
2021/12/31 02:29:43;;;;;;;;;;;21.90;55.30;;;;;;5044849;28;19909;-64
2021/12/31 02:32:08;;;;;;;;;;;21.90;55.30;;;;;;5044257;28;20693;-64
2021/12/31 02:34:34;;;;;;;;;;;21.90;55.30;;;;;;5044039;28;19912;-65
2021/12/31 02:36:59;;;;;;;;;;;21.90;55.30;;;;;;5039088;28;19912;-65
2021/12/31 02:39:25;;;;;;;;;;;21.90;55.30;;;;;;5045399;28;20765;-66
2021/12/31 02:41:50;;;;;;;;;;;21.90;55.40;;;;;;5041121;28;20015;-63
2021/12/31 02:44:16;;;;;;;;;;;21.90;55.30;;;;;;5042713;28;19924;-64
2021/12/31 02:46:42;;;;;;;;;;;21.90;55.30;;;;;;5041413;28;20003;-64
2021/12/31 02:49:07;;;;;;;;;;;21.90;55.30;;;;;;5044984;28;19912;-68
2021/12/31 02:51:33;;;;;;;;;;;21.90;55.30;;;;;;5038474;28;19923;-65
2021/12/31 02:54:02;;;;;;;;;;;21.90;55.40;;;;;;5040995;28;19912;-64
2021/12/31 02:56:29;;;;;;;;;;;21.90;55.40;;;;;;5039292;28;19916;-64
2021/12/31 02:58:55;;;;;;;;;;;21.80;55.30;;;;;;5041323;28;19909;-64
2021/12/31 03:01:21;;;;;;;;;;;21.90;55.40;;;;;;4997836;28;1093241;-66
2021/12/31 03:03:48;;;;;;;;;;;21.80;55.30;;;;;;5042797;28;19924;-67
2021/12/31 03:06:15;;;;;;;;;;;21.80;55.30;;;;;;5039749;28;20023;-64
2021/12/31 03:08:43;;;;;;;;;;;21.80;55.30;;;;;;5042880;28;19913;-65
2021/12/31 03:11:09;;;;;;;;;;;21.80;55.30;;;;;;5044049;28;20004;-66
2021/12/31 03:13:36;;;;;;;;;;;21.80;55.30;;;;;;5044254;28;19912;-64
2021/12/31 03:16:02;;;;;;;;;;;21.80;55.40;;;;;;5043228;28;19985;-66
2021/12/31 03:18:28;;;;;;;;;;;21.80;55.30;;;;;;5042709;28;20011;-64
2021/12/31 03:21:10;;;;;;;;;;;21.80;55.30;;;;;;5041562;28;19912;-65
2021/12/31 03:23:35;;;;;;;;;;;21.80;55.30;;;;;;5038026;28;19964;-68
2021/12/31 03:26:01;;;;;;;;;;;21.80;55.40;;;;;;5040840;28;19959;-66
2021/12/31 03:28:27;;;;;;;;;;;21.80;55.40;;;;;;5044751;28;19913;-64
2021/12/31 03:30:53;;;;;;;;;;;21.80;55.40;;;;;;5041295;28;20039;-64
2021/12/31 03:33:19;;;;;;;;;;;21.80;55.40;;;;;;5044504;28;20368;-64
2021/12/31 03:35:44;;;;;;;;;;;21.80;55.40;;;;;;5040265;28;19917;-64
2021/12/31 03:38:10;;;;;;;;;;;21.80;55.40;;;;;;5042006;28;20007;-64
2021/12/31 03:40:35;;;;;;;;;;;21.80;55.40;;;;;;5042257;28;19920;-65
2021/12/31 03:43:01;;;;;;;;;;;21.70;55.30;;;;;;5042114;28;20344;-69
2021/12/31 03:45:26;;;;;;;;;;;21.70;55.30;;;;;;5042676;28;19912;-65
2021/12/31 03:47:52;;;;;;;;;;;21.70;55.40;;;;;;5045172;28;19905;-66
2021/12/31 03:50:18;;;;;;;;;;;21.70;55.40;;;;;;5043790;28;19931;-69
2021/12/31 03:52:44;;;;;;;;;;;21.70;55.40;;;;;;5040554;28;20284;-68
2021/12/31 03:55:11;;;;;;;;;;;21.70;55.40;;;;;;5044086;28;19993;-65
2021/12/31 03:57:37;;;;;;;;;;;21.70;55.40;;;;;;5043563;28;19917;-68
2021/12/31 04:00:04;;;;;;;;;;;21.70;55.40;;;;;;5044508;28;20018;-64
2021/12/31 04:02:30;;;;;;;;;;;21.70;55.40;;;;;;5041448;28;20560;-68
2021/12/31 04:04:55;;;;;;;;;;;21.70;55.40;;;;;;5044578;28;19920;-65
2021/12/31 04:07:21;;;;;;;;;;;21.70;55.40;;;;;;5037411;28;19917;-65
2021/12/31 04:09:47;;;;;;;;;;;21.70;55.40;;;;;;5045427;28;19909;-64
2021/12/31 04:12:12;;;;;;;;;;;21.70;55.40;;;;;;5042799;28;19909;-64
2021/12/31 04:14:38;;;;;;;;;;;21.70;55.40;;;;;;5041716;28;19928;-67
2021/12/31 04:17:03;;;;;;;;;;;21.70;55.50;;;;;;5042637;28;19959;-68
2021/12/31 04:19:30;;;;;;;;;;;21.60;55.40;;;;;;5044051;28;19912;-63
2021/12/31 04:21:56;;;;;;;;;;;21.70;55.50;;;;;;5038350;28;19916;-67
2021/12/31 04:24:52;;;;;;;;;;;21.60;55.40;;;;;;5043602;28;19912;-65
2021/12/31 04:27:13;;;;;;;;;;;21.60;55.40;;;;;;5040918;28;19912;-65
2021/12/31 04:29:39;;;;;;;;;;;21.60;55.40;;;;;;5044581;28;20530;-68
2021/12/31 04:32:05;;;;;;;;;;;21.60;55.40;;;;;;5042761;28;19917;-63
2021/12/31 04:34:30;;;;;;;;;;;21.60;55.40;;;;;;5044015;28;19928;-68
2021/12/31 04:36:56;;;;;;;;;;;21.60;55.40;;;;;;5042473;28;19917;-64
2021/12/31 04:39:21;;;;;;;;;;;21.60;55.40;;;;;;5046356;28;20300;-68
2021/12/31 04:41:47;;;;;;;;;;;21.60;55.50;;;;;;5045367;28;19974;-64
2021/12/31 04:44:13;;;;;;;;;;;21.60;55.50;;;;;;5045324;28;19913;-63
2021/12/31 04:46:38;;;;;;;;;;;21.50;55.40;;;;;;5044292;28;19936;-64
2021/12/31 04:49:04;;;;;;;;;;;21.60;55.50;;;;;;5046126;28;20006;-68
2021/12/31 04:51:29;;;;;;;;;;;21.60;55.50;;;;;;5042051;28;20565;-68
2021/12/31 04:53:55;;;;;;;;;;;21.60;55.50;;;;;;5047350;28;20015;-64
2021/12/31 04:56:20;;;;;;;;;;;21.50;55.50;;;;;;5044581;28;19912;-65
2021/12/31 04:58:46;;;;;;;;;;;21.50;55.50;;;;;;5044873;28;19982;-65
2021/12/31 05:01:11;;;;;;;;;;;21.50;55.50;;;;;;5044737;28;19935;-65
2021/12/31 05:03:37;;;;;;;;;;;21.50;55.50;;;;;;5045204;28;20829;-67
2021/12/31 05:06:02;;;;;;;;;;;21.60;55.50;;;;;;5043208;28;19909;-64
2021/12/31 05:08:27;;;;;;;;;;;21.50;55.50;;;;;;5046325;28;19940;-64
2021/12/31 05:10:53;;;;;;;;;;;21.60;55.50;;;;;;5046766;28;20284;-68
2021/12/31 05:13:20;;;;;;;;;;;21.50;55.50;;;;;;5044498;28;19954;-68
2021/12/31 05:15:47;;;;;;;;;;;21.50;55.50;;;;;;5045465;28;19916;-65
2021/12/31 05:18:13;;;;;;;;;;;21.60;55.60;;;;;;5046431;28;19917;-64
2021/12/31 05:20:39;;;;;;;;;;;21.50;55.50;;;;;;5041382;28;20388;-63
2021/12/31 05:23:05;;;;;;;;;;;21.50;55.50;;;;;;5042524;28;19920;-68
2021/12/31 05:25:30;;;;;;;;;;;21.50;55.50;;;;;;5044223;28;20611;-64
2021/12/31 05:27:56;;;;;;;;;;;21.50;55.50;;;;;;5042041;28;19920;-65
2021/12/31 05:30:21;;;;;;;;;;;21.50;55.50;;;;;;5044329;28;20301;-62
2021/12/31 05:32:47;;;;;;;;;;;21.50;55.50;;;;;;5043052;28;19908;-67
2021/12/31 05:35:13;;;;;;;;;;;21.50;55.50;;;;;;5045233;28;19920;-65
2021/12/31 05:37:39;;;;;;;;;;;21.50;55.50;;;;;;5041798;28;20376;-63
2021/12/31 05:40:04;;;;;;;;;;;21.40;55.50;;;;;;5045365;28;19909;-64
2021/12/31 05:42:30;;;;;;;;;;;21.50;55.60;;;;;;5043420;28;19913;-64
2021/12/31 05:44:55;;;;;;;;;;;21.40;55.50;;;;;;5042148;28;19950;-68
2021/12/31 05:47:21;;;;;;;;;;;21.40;55.50;;;;;;5044972;28;20033;-65
2021/12/31 05:49:48;;;;;;;;;;;21.50;55.60;;;;;;5042954;28;19917;-64
2021/12/31 05:52:13;;;;;;;;;;;21.50;55.60;;;;;;5044593;28;19912;-68
2021/12/31 05:54:39;;;;;;;;;;;21.50;55.60;;;;;;5045487;28;20409;-68
2021/12/31 05:57:04;;;;;;;;;;;21.40;55.50;;;;;;5043697;28;19913;-64
2021/12/31 05:59:30;;;;;;;;;;;21.50;55.60;;;;;;5043324;28;20003;-64
2021/12/31 06:01:55;;;;;;;;;;;21.40;55.60;;;;;;5044939;28;19921;-65
2021/12/31 06:04:22;;;;;;;;;;;21.40;55.50;;;;;;5045537;28;19920;-65
2021/12/31 06:06:48;;;;;;;;;;;21.40;55.50;;;;;;5039625;28;20352;-66
2021/12/31 06:09:13;;;;;;;;;;;21.50;55.60;;;;;;5043917;28;19931;-64
2021/12/31 06:11:42;;;;;;;;;;;21.40;55.60;;;;;;5042176;28;19999;-63
2021/12/31 06:14:09;;;;;;;;;;;21.40;55.60;;;;;;5045452;28;19991;-64
2021/12/31 06:16:38;;;;;;;;;;;21.40;55.60;;;;;;5043284;28;19999;-64
2021/12/31 06:19:05;;;;;;;;;;;21.40;55.60;;;;;;5040005;28;20368;-64
2021/12/31 06:21:32;;;;;;;;;;;21.40;55.60;;;;;;5042004;28;20775;-64
2021/12/31 06:23:58;;;;;;;;;;;21.40;55.60;;;;;;5042955;28;19995;-65
2021/12/31 06:26:23;;;;;;;;;;;21.40;55.60;;;;;;5042421;28;19995;-64
2021/12/31 06:28:49;;;;;;;;;;;21.40;55.60;;;;;;5041109;28;19909;-64
2021/12/31 06:31:14;;;;;;;;;;;21.40;55.60;;;;;;5044569;28;19912;-64
2021/12/31 06:33:40;;;;;;;;;;;21.40;55.60;;;;;;5043815;28;20023;-69
2021/12/31 06:36:05;;;;;;;;;;;21.40;55.60;;;;;;5043639;28;20764;-64
2021/12/31 06:38:31;;;;;;;;;;;21.40;55.60;;;;;;5040968;28;19916;-64
2021/12/31 06:40:56;;;;;;;;;;;21.40;55.60;;;;;;5042287;28;19916;-63
2021/12/31 06:43:22;;;;;;;;;;;21.30;55.50;;;;;;5044979;28;20046;-65
2021/12/31 06:45:47;;;;;;;;;;;21.30;55.50;;;;;;5042809;28;20123;-68
2021/12/31 06:48:13;;;;;;;;;;;21.40;55.60;;;;;;5039391;28;19940;-68
2021/12/31 06:50:38;;;;;;;;;;;21.40;55.60;;;;;;5045101;28;19904;-64
2021/12/31 06:53:04;;;;;;;;;;;21.40;55.60;;;;;;5038654;28;19909;-64
2021/12/31 06:55:30;;;;;;;;;;;21.40;55.60;;;;;;5040126;28;20003;-68
2021/12/31 06:57:55;;;;;;;;;;;21.40;55.60;;;;;;5040864;28;20315;-63
2021/12/31 07:00:21;;;;;;;;;;;21.40;55.60;;;;;;5043169;28;19919;-66
2021/12/31 07:02:46;;;;;;;;;;;21.40;55.60;;;;;;5040216;28;20585;-64
2021/12/31 07:05:12;;;;;;;;;;;21.30;55.50;;;;;;5039647;28;19917;-64
2021/12/31 07:07:38;;;;;;;;;;;21.40;55.60;;;;;;5039282;28;19947;-65
2021/12/31 07:10:04;;;;;;;;;;;21.30;55.50;;;;;;5040718;28;19940;-65
2021/12/31 07:12:30;;;;;;;;;;;21.30;55.50;;;;;;5040845;28;19996;-68
2021/12/31 07:14:56;;;;;;;;;;;21.30;55.50;;;;;;5044476;28;20082;-66
2021/12/31 07:17:21;;;;;;;;;;;21.30;55.50;;;;;;5041338;28;19919;-66
2021/12/31 07:19:47;;;;;;;;;;;21.30;55.50;;;;;;5040998;28;19931;-64
2021/12/31 07:22:12;;;;;;;;;;;21.30;55.50;;;;;;5040332;28;20453;-67
2021/12/31 07:24:38;;;;;;;;;;;21.30;55.50;;;;;;5039841;28;19916;-64
2021/12/31 07:27:03;;;;;;;;;;;21.30;55.50;;;;;;5043710;28;20277;-66
2021/12/31 07:29:29;;;;;;;;;;;21.30;55.60;;;;;;5044126;28;19916;-65
2021/12/31 07:31:54;;;;;;;;;;;21.20;55.50;;;;;;5042042;28;19952;-68
2021/12/31 07:34:20;;;;;;;;;;;21.30;55.50;;;;;;5041241;28;20439;-64
2021/12/31 07:36:45;;;;;;;;;;;21.30;55.50;;;;;;5042279;28;19913;-66
2021/12/31 07:39:13;;;;;;;;;;;21.30;55.50;;;;;;5042526;28;20379;-65
2021/12/31 07:41:38;;;;;;;;;;;21.30;55.50;;;;;;5043387;28;19920;-64
2021/12/31 07:44:06;;;;;;;;;;;21.30;55.40;;;;;;5043057;28;19913;-65
2021/12/31 07:46:32;;;;;;;;;;;21.20;55.40;;;;;;5041501;28;20565;-64
2021/12/31 07:48:57;;;;;;;;;;;21.30;55.40;;;;;;5043352;28;19912;-65
2021/12/31 07:51:23;;;;;;;;;;;21.30;55.40;;;;;;5039953;28;19909;-65
2021/12/31 07:53:48;;;;;;;;;;;21.30;55.30;;;;;;5043685;28;19912;-68
2021/12/31 07:56:18;;;;;;;;;;;21.30;55.40;;;;;;5036199;28;19919;-65
2021/12/31 07:58:44;;;;;;;;;;;21.30;55.30;;;;;;5041281;28;19918;-63
2021/12/31 08:01:09;;;;;;;;;;;21.30;55.30;;;;;;5032214;28;19920;-65
2021/12/31 08:03:35;;;;;;;;;;;21.20;55.30;;;;;;5041855;28;19913;-64
2021/12/31 08:06:01;;;;;;;;;;;21.30;55.30;;;;;;5042188;28;20364;-68
2021/12/31 08:08:26;;;;;;;;;;;21.20;55.30;;;;;;5041612;28;19956;-68
2021/12/31 08:10:52;;;;;;;;;;;21.20;55.30;;;;;;5046428;28;20722;-65
2021/12/31 08:13:17;;;;;;;;;;;21.20;55.30;;;;;;5047365;28;19919;-65
2021/12/31 08:15:43;;;;;;;;;;;21.20;55.30;;;;;;5045523;28;19916;-67
2021/12/31 08:18:09;;;;;;;;;;;21.20;55.30;;;;;;5046132;28;19912;-68
2021/12/31 08:20:36;;;;;;;;;;;21.20;55.30;;;;;;5046049;28;21682;-67
2021/12/31 08:23:06;;;;;;;;;;;21.20;55.30;;;;;;5042758;28;20054;-65
2021/12/31 08:25:32;;;;;;;;;;;21.20;55.30;;;;;;5045881;28;20913;-68
2021/12/31 08:27:57;;;;;;;;;;;21.20;55.30;;;;;;5042406;28;19913;-65
2021/12/31 08:30:23;;;;;;;;;;;21.20;55.30;;;;;;5047975;28;20530;-68
2021/12/31 08:32:48;;;;;;;;;;;21.20;55.30;;;;;;5044805;28;19991;-64
2021/12/31 08:35:14;;;;;;;;;;;21.20;55.30;;;;;;5047555;28;20003;-65
2021/12/31 08:37:39;;;;;;;;;;;21.20;55.30;;;;;;5043336;28;19915;-64
2021/12/31 08:40:06;;;;;;;;;;;21.20;55.30;;;;;;5047592;28;20004;-63
2021/12/31 08:42:31;;;;;;;;;;;21.20;55.30;;;;;;5041671;28;19913;-65
2021/12/31 08:44:57;;;;;;;;;;;21.20;55.30;;;;;;5043854;28;20675;-64
2021/12/31 08:47:22;;;;;;;;;;;21.20;55.30;;;;;;5038383;28;19913;-66
2021/12/31 08:49:49;;;;;;;;;;;21.20;55.30;;;;;;5042690;28;19916;-68
2021/12/31 08:52:15;;;;;;;;;;;21.20;55.30;;;;;;5039906;28;19951;-68
2021/12/31 08:54:40;;;;;;;;;;;21.20;55.80;;;;;;5037733;28;20003;-68
2021/12/31 08:57:06;;;;;;;;;;;21.20;55.30;;;;;;5039611;28;19917;-64
2021/12/31 08:59:31;;;;;;;;;;;21.20;55.30;;;;;;5035313;28;20343;-65
2021/12/31 09:01:57;;;;;;;;;;;21.20;55.30;;;;;;5036780;28;19920;-64
2021/12/31 09:04:23;;;;;;;;;;;21.10;55.20;;;;;;5044996;28;19916;-64
2021/12/31 09:06:48;;;;;;;;;;;21.10;55.20;;;;;;5041777;28;19916;-64
2021/12/31 09:09:14;;;;;;;;;;;21.20;55.30;;;;;;5047499;28;19909;-67
2021/12/31 09:11:40;;;;;;;;;;;21.10;55.20;;;;;;5037012;28;20070;-65
2021/12/31 09:14:06;;;;;;;;;;;21.10;55.20;;;;;;5038969;28;19919;-65
2021/12/31 09:16:31;;;;;;;;;;;21.10;55.30;;;;;;5037734;28;19913;-65
2021/12/31 09:18:56;;;;;;;;;;;21.10;55.20;;;;;;5034701;28;19932;-65
2021/12/31 09:21:22;;;;;;;;;;;21.10;55.20;;;;;;5035193;28;19943;-65
2021/12/31 09:23:48;;;;;;;;;;;21.10;55.20;;;;;;5035456;28;19913;-68
2021/12/31 09:26:14;;;;;;;;;;;21.10;55.20;;;;;;5041926;28;19912;-65
2021/12/31 09:28:40;;;;;;;;;;;21.10;55.20;;;;;;5039020;28;19908;-64
2021/12/31 09:31:07;;;;;;;;;;;21.10;55.20;;;;;;5039895;28;19932;-65
2021/12/31 09:33:33;;;;;;;;;;;21.10;55.30;;;;;;5032276;28;19916;-68
2021/12/31 09:35:59;;;;;;;;;;;21.10;55.30;;;;;;5034343;28;20304;-66
2021/12/31 09:38:24;;;;;;;;;;;21.10;55.30;;;;;;5030704;28;21561;-65
2021/12/31 09:40:50;;;;;;;;;;;21.10;55.30;;;;;;5040449;28;19924;-67
2021/12/31 09:43:15;;;;;;;;;;;21.10;55.30;;;;;;5034334;28;19909;-64
2021/12/31 09:45:42;;;;;;;;;;;21.00;55.20;;;;;;5030202;28;19931;-68
2021/12/31 09:48:08;;;;;;;;;;;21.10;55.30;;;;;;5032819;28;20312;-65
2021/12/31 09:50:34;;;;;;;;;;;21.10;55.30;;;;;;5041699;28;19919;-65
2021/12/31 09:53:00;;;;;;;;;;;21.10;55.30;;;;;;5039905;28;19904;-63
2021/12/31 09:55:38;;;;;;;;;;;21.10;55.30;;;;;;5039235;28;19981;-68
2021/12/31 09:58:03;;;;;;;;;;;21.10;55.30;;;;;;5036564;28;19913;-65
2021/12/31 10:00:29;;;;;;;;;;;21.10;55.30;;;;;;5037079;28;20473;-65
2021/12/31 10:03:13;;;;;;;;;;;21.10;55.30;;;;;;5034683;28;19921;-65
2021/12/31 10:05:43;;;;;;;;;;;21.10;55.30;;;;;;5041727;28;19973;-64
2021/12/31 10:08:12;;;;;;;;;;;21.10;55.30;;;;;;5036745;28;19921;-65
2021/12/31 10:10:38;;;;;;;;;;;21.10;55.30;;;;;;5060721;28;19913;-65
2021/12/31 10:13:07;;;;;;;;;;;21.10;55.30;;;;;;5036241;28;19913;-68
2021/12/31 10:15:37;;;;;;;;;;;21.10;55.30;;;;;;5036703;28;19944;-68
2021/12/31 10:18:08;;;;;;;;;;;21.10;55.30;;;;;;5038901;28;19921;-64
2021/12/31 10:20:45;;;;;;;;;;;21.10;55.40;;;;;;5039919;28;19916;-65
2021/12/31 10:23:12;;;;;;;;;;;21.10;55.40;;;;;;5032949;28;19916;-65
2021/12/31 10:25:39;;;;;;;;;;;21.10;55.30;;;;;;5038644;28;19923;-67
2021/12/31 10:28:12;;;;;;;;;;;21.10;55.30;;;;;;5039014;28;20657;-64
2021/12/31 10:30:37;;;;;;;;;;;21.10;55.40;;;;;;5053495;28;19909;-69
2021/12/31 10:33:03;;;;;;;;;;;21.10;55.40;;;;;;5042464;28;20952;-66
2021/12/31 10:35:36;;;;;;;;;;;21.10;55.40;;;;;;5042373;28;19927;-66
2021/12/31 10:38:04;;;;;;;;;;;21.10;55.40;;;;;;5043122;28;19957;-64
2021/12/31 10:40:31;;;;;;;;;;;21.00;55.30;;;;;;5043737;28;19990;-66
2021/12/31 10:43:18;;;;;;;;;;;21.10;55.30;;;;;;5035942;28;19923;-64
2021/12/31 10:46:04;;;;;;;;;;;21.10;55.30;;;;;;5038326;28;19913;-65
2021/12/31 10:48:40;;;;;;;;;;;21.10;55.30;;;;;;5041543;28;20407;-65
2021/12/31 10:51:06;;;;;;;;;;;21.10;55.30;;;;;;5044654;28;19966;-65
2021/12/31 10:53:37;;;;;;;;;;;21.10;55.40;;;;;;5034920;28;19913;-65
2021/12/31 10:56:07;;;;;;;;;;;21.10;55.30;;;;;;5040294;28;19920;-69
2021/12/31 10:58:33;;;;;;;;;;;21.10;55.40;;;;;;5038099;28;19916;-66
2021/12/31 11:00:59;;;;;;;;;;;21.10;55.40;;;;;;5038493;28;19931;-68
2021/12/31 11:03:25;;;;;;;;;;;21.10;55.50;;;;;;5040660;28;19999;-68
2021/12/31 11:05:52;;;;;;;;;;;21.10;55.50;;;;;;5043616;28;19967;-65
2021/12/31 11:08:18;;;;;;;;;;;21.10;55.50;;;;;;5038379;28;20400;-65
2021/12/31 11:10:44;;;;;;;;;;;21.00;55.40;;;;;;5043022;28;19919;-68
2021/12/31 11:13:14;;;;;;;;;;;21.10;55.50;;;;;;5038086;28;19986;-67
2021/12/31 11:15:43;;;;;;;;;;;21.10;55.40;;;;;;5037758;28;19920;-65
2021/12/31 11:18:08;;;;;;;;;;;21.10;55.50;;;;;;5037941;28;19917;-65
2021/12/31 11:20:34;;;;;;;;;;;21.10;55.40;;;;;;5044702;28;19913;-63
2021/12/31 11:23:00;;;;;;;;;;;21.10;55.40;;;;;;5037883;28;19912;-63
2021/12/31 11:25:29;;;;;;;;;;;21.10;55.50;;;;;;5042895;28;19919;-64
2021/12/31 11:27:55;;;;;;;;;;;21.10;55.40;;;;;;5037956;28;19917;-65
2021/12/31 11:30:28;;;;;;;;;;;21.10;55.40;;;;;;5039408;28;20003;-65
2021/12/31 11:32:55;;;;;;;;;;;21.10;55.40;;;;;;5039222;28;19913;-63
2021/12/31 11:35:34;;;;;;;;;;;21.10;55.40;;;;;;5035438;28;19924;-67
2021/12/31 11:38:01;;;;;;;;;;;21.10;55.30;;;;;;5039913;28;20245;-62
2021/12/31 11:40:28;;;;;;;;;;;21.10;55.30;;;;;;5036989;28;20002;-67
2021/12/31 11:43:12;;;;;;;;;;;21.10;55.30;;;;;;5027552;28;19913;-63
2021/12/31 11:45:38;;;;;;;;;;;21.10;55.90;;;;;;5038846;28;19981;-67
2021/12/31 11:48:39;;;;;;;;;;;21.20;56.60;;;;;;5038023;28;19912;-64
2021/12/31 11:51:04;;;;;;;;;;;21.20;56.20;;;;;;4965501;28;20290;-64
2021/12/31 11:53:30;;;;;;;;;;;21.20;56.20;;;;;;5019713;28;19916;-65
2021/12/31 11:55:56;;;;;;;;;;;21.20;56.00;;;;;;5034876;28;20365;-65
2021/12/31 11:58:47;;;;;;;;;;;21.30;56.10;;;;;;5038238;28;20007;-64
2021/12/31 12:01:32;;;;;;;;;;;21.30;56.20;;;;;;5030783;28;20434;-67
2021/12/31 12:04:16;;;;;;;;;;;21.40;56.20;;;;;;5034936;28;19936;-65
2021/12/31 12:06:50;;;;;;;;;;;21.40;56.30;;;;;;5034304;28;20015;-65
2021/12/31 12:09:16;;;;;;;;;;;21.40;56.20;;;;;;5036561;28;19935;-67
2021/12/31 12:11:58;;;;;;;;;;;21.40;56.10;;;;;;5032027;28;20551;-67
2021/12/31 12:14:37;;;;;;;;;;;21.40;56.10;;;;;;5037547;28;20367;-64
2021/12/31 12:17:03;;;;;;;;;;;21.50;56.10;;;;;;5040607;28;19920;-67
2021/12/31 12:19:47;;;;;;;;;;;21.50;56.10;;;;;;5036611;28;19916;-66
2021/12/31 12:22:26;;;;;;;;;;;21.50;56.10;;;;;;5032045;28;19917;-66
2021/12/31 12:24:52;;;;;;;;;;;21.50;56.00;;;;;;5034035;28;19925;-65
2021/12/31 12:27:20;;;;;;;;;;;21.50;56.00;;;;;;5035912;28;19946;-66
2021/12/31 12:29:46;;;;;;;;;;;21.50;56.00;;;;;;5033671;28;20003;-65
2021/12/31 12:32:12;;;;;;;;;;;21.60;56.00;;;;;;5033935;28;21772;-66
2021/12/31 12:34:38;;;;;;;;;;;21.50;55.90;;;;;;5038649;28;19978;-66
2021/12/31 12:37:03;;;;;;;;;;;21.60;55.90;;;;;;5030722;28;20011;-65
2021/12/31 12:39:29;;;;;;;;;;;21.60;55.90;;;;;;5036136;28;19917;-64
2021/12/31 12:41:55;;;;;;;;;;;21.60;55.90;;;;;;5038895;28;19923;-65
2021/12/31 12:44:20;;;;;;;;;;;21.60;55.80;;;;;;5036598;28;19908;-66
2021/12/31 12:46:54;;;;;;;;;;;21.60;55.90;;;;;;5037032;28;19912;-65
2021/12/31 12:49:20;;;;;;;;;;;21.60;55.80;;;;;;5034873;28;20059;-65
2021/12/31 12:51:46;;;;;;;;;;;21.60;55.80;;;;;;5039201;28;20044;-65
2021/12/31 12:54:17;;;;;;;;;;;21.60;55.80;;;;;;5034635;28;19912;-66
2021/12/31 12:56:42;;;;;;;;;;;21.60;55.80;;;;;;5036821;28;19924;-64
2021/12/31 12:59:10;;;;;;;;;;;21.60;55.80;;;;;;5033058;28;19996;-67
2021/12/31 13:01:36;;;;;;;;;;;21.60;55.80;;;;;;5035800;28;19935;-66
2021/12/31 13:04:02;;;;;;;;;;;21.60;55.70;;;;;;5035245;28;20023;-67
2021/12/31 13:06:28;;;;;;;;;;;21.60;55.70;;;;;;5033443;28;19917;-63
2021/12/31 13:09:15;;;;;;;;;;;21.60;55.80;;;;;;5031210;28;19923;-66
2021/12/31 13:11:43;;;;;;;;;;;21.60;55.80;;;;;;5047316;28;19913;-64
2021/12/31 13:14:19;;;;;;;;;;;21.60;55.70;;;;;;5030766;28;20319;-65
2021/12/31 13:16:47;;;;;;;;;;;21.60;55.80;;;;;;5031552;28;20035;-65
2021/12/31 13:19:14;;;;;;;;;;;21.60;55.70;;;;;;5036310;28;20296;-64
2021/12/31 13:21:40;;;;;;;;;;;21.60;55.70;;;;;;5031923;28;20002;-67
2021/12/31 13:24:06;;;;;;;;;;;21.60;55.70;;;;;;5030760;28;20369;-64
2021/12/31 13:26:33;;;;;;;;;;;21.70;55.70;;;;;;5035442;28;19913;-65
2021/12/31 13:29:03;;;;;;;;;;;21.70;55.80;;;;;;5031297;28;19917;-65
2021/12/31 13:31:36;;;;;;;;;;;21.70;55.70;;;;;;5027297;28;19963;-65
2021/12/31 13:34:10;;;;;;;;;;;21.70;55.70;;;;;;5033089;28;19917;-65
2021/12/31 13:36:43;;;;;;;;;;;21.70;55.70;;;;;;5030382;28;19921;-67
2021/12/31 13:39:13;;;;;;;;;;;21.70;55.70;;;;;;5030669;28;20028;-64
2021/12/31 13:41:50;;;;;;;;;;;21.70;55.70;;;;;;5029963;28;20012;-64
2021/12/31 13:44:18;;;;;;;;;;;21.70;55.60;;;;;;5034706;28;19917;-66
2021/12/31 13:46:45;;;;;;;;;;;21.70;55.60;;;;;;5033675;28;19955;-65
2021/12/31 13:49:12;;;;;;;;;;;21.60;55.60;;;;;;5033067;28;19916;-67
2021/12/31 13:51:38;;;;;;;;;;;21.70;55.60;;;;;;5029219;28;19923;-66
2021/12/31 13:54:05;;;;;;;;;;;21.70;55.60;;;;;;5031487;28;20017;-65
2021/12/31 13:56:34;;;;;;;;;;;21.70;55.60;;;;;;5033569;28;20174;-64
2021/12/31 13:59:19;;;;;;;;;;;21.70;55.60;;;;;;5031315;28;19924;-65
2021/12/31 14:02:03;;;;;;;;;;;21.70;55.60;;;;;;5027421;28;19976;-65
2021/12/31 14:04:29;;;;;;;;;;;21.70;55.60;;;;;;5031855;28;19916;-66
2021/12/31 14:07:00;;;;;;;;;;;21.70;55.60;;;;;;5031552;28;19913;-64
2021/12/31 14:09:26;;;;;;;;;;;21.70;55.60;;;;;;5029095;28;19914;-65
2021/12/31 14:11:53;;;;;;;;;;;21.70;55.60;;;;;;5029383;28;19931;-65
2021/12/31 14:14:19;;;;;;;;;;;21.70;55.60;;;;;;5032041;28;20491;-67
2021/12/31 14:16:44;;;;;;;;;;;21.70;55.70;;;;;;5033126;28;19913;-65
2021/12/31 14:19:10;;;;;;;;;;;21.70;55.70;;;;;;5032895;28;19966;-66
2021/12/31 14:21:36;;;;;;;;;;;21.70;55.70;;;;;;5032623;28;20617;-67
2021/12/31 14:24:02;;;;;;;;;;;21.70;55.70;;;;;;5030395;28;19917;-65